• Join FlightAware (Why Join?)
  • Login
  • US Flag 
07:50AM EDT


 

Airport Tracker/Info


-or-


 

Live Flight TrackerFlight Track Log ✈ USC250 ✈ 29-Jul-2013 ✈ KUNV - KPHL

Flight Track Log - Related Links

Times and Time Zones

All times are in EDT time to prevent confusion due to time zone crossing. See the USC250 flight status page for this flight to view local times or setup timezone preferences in your user account.

Time Position Orientation Groundspeed Altitude Reporting Facility
EDT Latitude Longitude Course Direction KTS MPH feet Rate Location/Type
08:46PM 40.8378 -77.8756 108° East 180 207 2,400  Level New York Center
08:47PM 40.8142 -77.8539 145° Southeast 132 152 3,400 1,020 Climbing New York Center
08:48PM 40.8028 -77.8006 106° East 85 98 4,500 780 Climbing New York Center
08:49PM 40.7914 -77.7444 105° East 122 140 5,000 240 Climbing New York Center
08:50PM 40.7728 -77.6686 108° East 175 201 5,000  Level New York Center
08:51PM 40.7201 -77.4901 108° East  Level Estimated
08:51PM 40.7625 -77.5964 101° East 187 215 5,000  Level New York Center
08:52PM 40.7456 -77.5289 108° East 197 227 5,000  Level New York Center
08:53PM 40.7289 -77.4561 107° East 202 232 5,000  Level New York Center
08:54PM 40.7161 -77.3864 104° East 202 232 5,000  Level New York Center
08:55PM 40.7014 -77.3136 105° East 197 227 5,000  Level New York Center
08:56PM 40.6864 -77.2464 106° East 197 227 5,000  Level New York Center
08:57PM 40.6733 -77.1769 104° East 192 221 5,000  Level New York Center
08:58PM 40.6583 -77.1069 106° East 192 221 5,000  Level New York Center
08:59PM 40.6450 -77.0456 106° East 192 221 5,000  Level New York Center
09:00PM 40.6303 -76.9678 104° East 192 221 5,000  Level New York Center
09:01PM 40.6147 -76.9061 108° East 192 221 5,000  Level New York Center
09:02PM 40.6042 -76.8286 100° East 187 215 5,000  Level New York Center
09:03PM 40.5847 -76.7614 111° Southeast 192 221 5,000  Level New York Center
09:04PM 40.5711 -76.6972 106° East 197 227 5,000  Level New York Center
09:05PM 40.5561 -76.6222 105° East 197 227 5,000  Level New York Center
09:07PM 40.5182 -76.5267 126° Southeast  Level FlightAware Approximate
09:13PM 40.3000 -76.1167 140° Southeast 198 228 5,000  Level Philadelphia TRACON
09:14PM 40.3081 -76.1592 126° Southeast  Level FlightAware Approximate
09:15PM 40.2789 -76.1057 126° Southeast  Level FlightAware Approximate
09:15PM 40.2500 -76.0500 134° Southeast 197 227 5,000  Level Philadelphia TRACON
09:15PM 40.2167 -76.0000 131° Southeast 198 228 5,000  Level Philadelphia TRACON
09:16PM 40.2475 -76.0546 131° Southeast  Level FlightAware Approximate
09:17PM 40.2116 -76.0091 140° Southeast  Level FlightAware Approximate
09:17PM 40.1833 -75.9333 123° Southeast 197 227 5,000  Level Philadelphia TRACON
09:18PM 40.1734 -75.9666 140° Southeast  Level FlightAware Approximate
09:18PM 40.1500 -75.8667 123° Southeast 199 229 5,000  Level Philadelphia TRACON
09:19PM 40.1167 -75.8167 131° Southeast 198 228 5,000  Level Philadelphia TRACON
09:20PM 40.0833 -75.7667 131° Southeast 197 227 5,000 -300 Level Philadelphia TRACON
09:21PM 40.0833 -75.6833 90° East 214 246 4,500 -480 Descending Philadelphia TRACON
09:22PM 40.0667 -75.6000 105° East 207 238 4,000 -240 Descending Philadelphia TRACON
09:23PM 40.0667 -75.5333 90° East 189 217 4,000  Level Philadelphia TRACON
09:24PM 40.0667 -75.4667 90° East 182 209 4,000  Level Philadelphia TRACON
09:25PM 40.0667 -75.4000 90° East 177 204 4,000  Level Philadelphia TRACON
09:26PM 40.0667 -75.3333 90° East 180 207 4,000 -420 Level Philadelphia TRACON
09:27PM 40.0667 -75.2667 90° East 192 221 3,300 -600 Descending Philadelphia TRACON
09:28PM 40.0333 -75.2167 131° Southeast 187 215 2,900 -180 Descending Philadelphia TRACON
09:29PM 40.0000 -75.1667 131° Southeast 171 197 3,000 -360 Climbing Philadelphia TRACON
09:30PM 39.9667 -75.1167 131° Southeast 189 217 2,200 -420 Descending Philadelphia TRACON
09:31PM 39.9167 -75.1000 166° South 143 165 2,100 -420 Descending Philadelphia TRACON
09:32PM 39.9000 -75.1333 237° Southwest 121 139 1,400 -660 Descending Philadelphia TRACON
09:33PM 39.9000 -75.1667 270° West 111 128 900 -660 Descending Philadelphia TRACON
09:34PM 39.8833 -75.2000 237° Southwest 99 114 300 -600 Descending Philadelphia TRACON
09:36PM 39.8667 -75.2333 174° South  Level FlightAware Approximate